Time;durP1;ratioP1;P1;durP2;ratioP2;P2;SDS_P1;SDS_P2;PMS_P1;PMS_P2;Temp;Humidity;BMP_temperature;BMP_pressure;BME280_temperature;BME280_humidity;BME280_pressure;Samples;Min_cycle;Max_cycle;Signal;HPM_P1;HPM_P2
2022/10/11 00:06:23;;;;;;;10.33;3.80;;;17.50;99.90;;;;;;7646509;76;26326;-51
2022/10/11 00:16:25;;;;;;;7.23;3.30;;;17.30;99.90;;;;;;7635109;76;26740;-52
2022/10/11 00:26:28;;;;;;;7.60;2.90;;;17.30;99.90;;;;;;7584684;76;26251;-52
2022/10/11 00:36:30;;;;;;;7.70;2.67;;;17.20;99.90;;;;;;7580132;76;27000;-54
2022/10/11 00:46:33;;;;;;;7.07;2.30;;;17.30;99.90;;;;;;7608757;77;26255;-52
2022/10/11 00:56:38;;;;;;;6.27;2.10;;;17.10;99.90;;;;;;7612548;76;26264;-52
2022/10/11 01:06:42;;;;;;;8.27;3.00;;;17.00;99.90;;;;;;7588995;76;26254;-52
2022/10/11 01:16:56;;;;;;;6.53;2.47;;;17.10;99.90;;;;;;7621813;76;26716;-51
2022/10/11 01:27:27;;;;;;;6.53;2.43;;;17.20;99.90;;;;;;7610528;76;26241;-54
2022/10/11 01:37:38;;;;;;;10.17;1.97;;;17.10;99.90;;;;;;7609751;76;26270;-53
2022/10/11 01:47:41;;;;;;;6.50;1.87;;;17.00;99.90;;;;;;7650473;76;26330;-55
2022/10/11 01:57:52;;;;;;;6.43;2.33;;;16.90;99.90;;;;;;7617367;76;26341;-51
2022/10/11 02:08:26;;;;;;;5.23;2.07;;;16.90;99.90;;;;;;7588097;76;26780;-51
2022/10/11 02:18:32;;;;;;;8.23;2.13;;;16.80;99.90;;;;;;7586187;76;26345;-51
2022/10/11 02:28:37;;;;;;;6.77;2.23;;;16.70;99.90;;;;;;7596985;76;26741;-51
2022/10/11 02:38:49;;;;;;;11.00;2.70;;;16.80;99.90;;;;;;7628057;76;26712;-54
2022/10/11 02:48:51;;;;;;;7.83;2.10;;;16.70;99.90;;;;;;7613572;76;26259;-52
2022/10/11 02:58:54;;;;;;;4.10;1.43;;;16.70;99.90;;;;;;7628473;76;26306;-52
2022/10/11 03:08:56;;;;;;;6.53;1.70;;;16.70;99.90;;;;;;7633360;76;26236;-52
2022/10/11 03:18:59;;;;;;;5.97;1.70;;;16.60;99.90;;;;;;7593429;76;26366;-52
2022/10/11 03:29:01;;;;;;;8.80;1.90;;;16.60;99.90;;;;;;7619001;76;26753;-53
2022/10/11 03:39:04;;;;;;;6.23;1.90;;;16.50;99.90;;;;;;7584753;76;26251;-52
2022/10/11 03:49:07;;;;;;;6.83;2.60;;;16.50;99.90;;;;;;7640745;76;26279;-53
2022/10/11 03:59:09;;;;;;;4.53;1.60;;;16.40;99.90;;;;;;7646089;77;26259;-51
2022/10/11 04:09:12;;;;;;;5.20;2.00;;;16.40;99.90;;;;;;7666516;76;26707;-52
2022/10/11 04:19:14;;;;;;;11.53;3.73;;;16.30;99.90;;;;;;7645679;76;26279;-51
2022/10/11 04:29:17;;;;;;;9.40;2.10;;;16.10;99.90;;;;;;7592544;76;26659;-54
2022/10/11 04:39:19;;;;;;;6.63;2.07;;;16.20;99.90;;;;;;7572104;76;26259;-51
2022/10/11 04:49:22;;;;;;;8.33;1.87;;;15.80;99.90;;;;;;7628806;76;26263;-52
2022/10/11 04:59:24;;;;;;;6.07;2.10;;;15.90;99.90;;;;;;7609342;76;26250;-53
2022/10/11 05:09:27;;;;;;;9.60;3.03;;;15.80;99.90;;;;;;7596917;76;26268;-52
2022/10/11 05:19:30;;;;;;;8.13;2.27;;;15.90;99.90;;;;;;7618681;76;26368;-51
2022/10/11 05:29:32;;;;;;;6.87;2.30;;;15.90;99.90;;;;;;7595142;76;26746;-53
2022/10/11 05:39:35;;;;;;;8.63;1.97;;;15.80;99.90;;;;;;7622895;76;26261;-52
2022/10/11 05:49:37;;;;;;;7.23;2.10;;;15.80;99.90;;;;;;7681306;76;27106;-52
2022/10/11 05:59:40;;;;;;;7.23;2.00;;;15.70;99.90;;;;;;7621959;76;26310;-53
2022/10/11 06:09:43;;;;;;;10.07;2.37;;;15.70;99.90;;;;;;7629206;76;26253;-52
2022/10/11 06:19:45;;;;;;;24.07;2.97;;;15.70;99.90;;;;;;7631104;76;26324;-56
2022/10/11 06:29:48;;;;;;;23.97;4.03;;;15.80;99.90;;;;;;7622665;76;26258;-57
2022/10/11 06:39:50;;;;;;;42.20;5.30;;;15.90;99.90;;;;;;7671260;76;26338;-55
2022/10/11 06:49:53;;;;;;;12.83;4.30;;;15.90;99.90;;;;;;7654360;76;26229;-55
2022/10/11 06:59:55;;;;;;;19.00;4.30;;;15.40;99.90;;;;;;7612632;76;26718;-56
2022/10/11 07:09:58;;;;;;;14.93;4.83;;;15.80;99.90;;;;;;7621880;76;26244;-53
2022/10/11 07:20:00;;;;;;;10.73;4.07;;;15.60;99.90;;;;;;7614610;76;26351;-56
2022/10/11 07:30:03;;;;;;;16.83;3.73;;;15.80;99.90;;;;;;7606246;76;26248;-56
2022/10/11 07:40:09;;;;;;;10.83;4.10;;;15.80;99.90;;;;;;7587737;76;26275;-56
2022/10/11 07:50:10;;;;;;;13.43;4.57;;;15.90;99.90;;;;;;7584972;77;26313;-52
2022/10/11 08:00:13;;;;;;;23.33;7.73;;;15.90;99.90;;;;;;7599066;76;26240;-55
2022/10/11 08:10:16;;;;;;;23.50;8.23;;;16.30;99.90;;;;;;7636323;76;26267;-55
2022/10/11 08:20:19;;;;;;;22.07;7.97;;;16.60;99.90;;;;;;7631043;76;26451;-56
2022/10/11 08:30:21;;;;;;;27.10;8.27;;;16.80;99.90;;;;;;7616865;76;26741;-56
2022/10/11 08:40:24;;;;;;;24.23;9.70;;;17.00;99.90;;;;;;7622661;76;26363;-58
2022/10/11 08:50:27;;;;;;;19.63;7.90;;;17.30;99.90;;;;;;7612948;76;26775;-55
2022/10/11 09:00:32;;;;;;;18.20;6.83;;;17.50;99.90;;;;;;7606031;76;26335;-57
2022/10/11 09:10:52;;;;;;;20.67;6.53;;;17.70;99.90;;;;;;7612098;76;26749;-56
2022/10/11 09:21:19;;;;;;;22.67;6.73;;;17.40;99.90;;;;;;7607718;77;26268;-55
2022/10/11 09:31:23;;;;;;;17.40;4.90;;;17.40;99.90;;;;;;7589869;76;26902;-57
2022/10/11 09:41:45;;;;;;;14.20;4.30;;;17.70;99.90;;;;;;7607364;76;26260;-54
2022/10/11 09:51:56;;;;;;;12.47;3.80;;;17.50;99.90;;;;;;7606088;76;26275;-56
2022/10/11 10:02:17;;;;;;;15.13;3.57;;;17.70;99.90;;;;;;7551081;76;26365;-56
2022/10/11 10:12:23;;;;;;;11.93;3.83;;;17.60;99.90;;;;;;7594451;76;26660;-57
2022/10/11 10:22:28;;;;;;;14.13;4.17;;;17.40;99.90;;;;;;7577043;76;26322;-55
2022/10/11 10:32:34;;;;;;;9.27;3.40;;;17.70;99.90;;;;;;7620743;76;26300;-56
2022/10/11 10:42:37;;;;;;;12.00;3.40;;;17.80;99.90;;;;;;7599367;76;26326;-56
2022/10/11 10:52:52;;;;;;;10.90;2.57;;;17.70;99.90;;;;;;7595481;76;26392;-56
2022/10/11 11:03:13;;;;;;;13.53;2.87;;;17.30;99.90;;;;;;7573249;76;26318;-57
2022/10/11 11:13:24;;;;;;;10.80;2.30;;;17.10;99.90;;;;;;7579302;76;26295;-56
2022/10/11 11:23:38;;;;;;;12.37;2.60;;;16.80;99.90;;;;;;7578851;76;26580;-56
2022/10/11 11:34:01;;;;;;;13.03;2.53;;;17.40;99.90;;;;;;7559413;76;26314;-55
2022/10/11 11:44:13;;;;;;;5.90;1.97;;;17.20;99.90;;;;;;7648715;76;26338;-53
2022/10/11 11:54:33;;;;;;;9.40;2.07;;;16.90;99.90;;;;;;7616842;76;26585;-56
2022/10/11 12:04:39;;;;;;;8.93;2.70;;;17.00;99.90;;;;;;7589469;76;26377;-55
2022/10/11 12:14:42;;;;;;;11.53;2.60;;;17.00;99.90;;;;;;7592223;76;26742;-56
2022/10/11 12:25:03;;;;;;;5.80;2.10;;;17.20;99.90;;;;;;7596335;76;26289;-58
2022/10/11 12:35:32;;;;;;;5.13;2.03;;;17.10;99.90;;;;;;7600885;76;26636;-54
2022/10/11 12:45:34;;;;;;;7.20;2.10;;;17.30;99.90;;;;;;7594822;76;26320;-57
2022/10/11 12:55:43;;;;;;;7.70;2.20;;;17.30;99.90;;;;;;7613196;77;26382;-57
2022/10/11 13:05:46;;;;;;;10.13;2.10;;;17.40;99.90;;;;;;7590635;76;26751;-56
2022/10/11 13:15:51;;;;;;;7.03;2.27;;;17.40;99.90;;;;;;7585421;76;26857;-56
2022/10/11 13:25:54;;;;;;;7.47;2.13;;;17.40;99.90;;;;;;7592997;76;26368;-56
2022/10/11 13:36:00;;;;;;;4.33;1.90;;;17.40;99.90;;;;;;7575137;76;26804;-55
2022/10/11 13:46:04;;;;;;;4.80;1.90;;;17.40;99.90;;;;;;7626547;76;26297;-56
2022/10/11 13:56:08;;;;;;;6.53;1.87;;;17.50;99.90;;;;;;7594493;76;26296;-54
2022/10/11 14:06:11;;;;;;;8.47;1.87;;;17.50;99.90;;;;;;7575339;76;26290;-57
2022/10/11 14:16:22;;;;;;;9.97;2.00;;;17.50;99.90;;;;;;7622086;76;26267;-57
2022/10/11 14:26:26;;;;;;;10.10;2.57;;;17.50;99.90;;;;;;7609263;76;26249;-57
2022/10/11 14:36:28;;;;;;;4.23;1.70;;;17.50;99.90;;;;;;7580051;76;26745;-58
2022/10/11 14:46:31;;;;;;;5.67;1.60;;;17.50;99.90;;;;;;7605657;76;26330;-57
2022/10/11 14:56:33;;;;;;;5.53;1.83;;;17.50;99.90;;;;;;7609718;76;26325;-57
2022/10/11 15:06:39;;;;;;;7.57;2.20;;;17.40;99.90;;;;;;7582999;76;26808;-58
2022/10/11 15:16:42;;;;;;;6.73;2.07;;;17.50;99.90;;;;;;7628995;76;26824;-57
2022/10/11 15:26:45;;;;;;;29.63;5.10;;;17.50;99.90;;;;;;7637739;76;26740;-58
2022/10/11 15:36:48;;;;;;;27.77;6.70;;;17.30;99.90;;;;;;7591999;76;26212;-58
2022/10/11 15:46:51;;;;;;;19.03;5.10;;;17.30;99.90;;;;;;7613895;76;26217;-57
2022/10/11 15:56:53;;;;;;;26.77;6.00;;;17.20;99.90;;;;;;7599526;76;27012;-58
2022/10/11 16:06:56;;;;;;;22.97;5.97;;;17.30;99.90;;;;;;7612434;76;26294;-57
2022/10/11 16:16:58;;;;;;;20.77;6.30;;;17.30;99.90;;;;;;7624517;76;26275;-56
2022/10/11 16:27:01;;;;;;;18.37;6.07;;;17.40;99.90;;;;;;7611034;76;26703;-58
2022/10/11 16:37:03;;;;;;;21.53;5.53;;;17.40;99.90;;;;;;7577581;76;26296;-57
2022/10/11 16:47:06;;;;;;;22.47;5.23;;;17.40;99.90;;;;;;7608222;76;26310;-58
2022/10/11 16:57:09;;;;;;;17.00;5.07;;;17.40;99.90;;;;;;7609091;76;26295;-57
2022/10/11 17:07:12;;;;;;;14.57;4.33;;;17.40;99.90;;;;;;7571029;76;26271;-58
2022/10/11 17:17:16;;;;;;;26.97;10.23;;;17.30;99.90;;;;;;7631677;76;26353;-57
2022/10/11 17:27:18;;;;;;;31.70;12.77;;;17.30;99.90;;;;;;7554338;77;26345;-58
2022/10/11 17:37:21;;;;;;;28.37;11.50;;;17.30;99.90;;;;;;7554771;77;26327;-55
2022/10/11 17:47:23;;;;;;;24.00;9.90;;;17.30;99.90;;;;;;7540313;77;27472;-53
2022/10/11 17:57:26;;;;;;;21.00;8.70;;;17.30;99.90;;;;;;7544494;77;26362;-56
2022/10/11 18:07:28;;;;;;;13.77;6.57;;;17.30;99.90;;;;;;7540190;77;26308;-57
2022/10/11 18:17:31;;;;;;;16.53;5.47;;;17.30;99.90;;;;;;7519626;76;26314;-56
2022/10/11 18:27:33;;;;;;;20.13;6.00;;;17.20;99.90;;;;;;7675195;76;26454;-56
2022/10/11 18:37:36;;;;;;;13.77;5.47;;;17.20;99.90;;;;;;7718219;76;26310;-54
2022/10/11 18:47:38;;;;;;;8.97;3.83;;;17.20;99.90;;;;;;7729602;76;26351;-59
2022/10/11 18:57:41;;;;;;;12.57;4.20;;;17.10;99.90;;;;;;7684650;76;26320;-58
2022/10/11 19:07:44;;;;;;;17.57;4.63;;;17.10;99.90;;;;;;7731353;76;26364;-57
2022/10/11 19:17:46;;;;;;;18.43;5.10;;;17.00;99.90;;;;;;7692226;76;26375;-59
2022/10/11 19:27:49;;;;;;;15.23;3.87;;;16.90;99.90;;;;;;7736430;76;27371;-58
2022/10/11 19:37:51;;;;;;;12.30;3.30;;;16.90;99.90;;;;;;7728030;76;26543;-56
2022/10/11 19:47:54;;;;;;;10.43;3.57;;;16.90;99.90;;;;;;7784877;76;26303;-57
2022/10/11 19:57:56;;;;;;;13.13;3.33;;;16.90;99.90;;;;;;7773967;76;26307;-57
2022/10/11 20:07:59;;;;;;;11.27;3.77;;;16.80;99.90;;;;;;7776227;76;26760;-58
2022/10/11 20:18:01;;;;;;;7.80;3.17;;;16.80;99.90;;;;;;7777112;76;26344;-58
2022/10/11 20:28:04;;;;;;;8.03;2.70;;;16.80;99.90;;;;;;7769142;76;26291;-57
2022/10/11 20:38:06;;;;;;;8.00;3.40;;;16.70;99.90;;;;;;7741761;75;26695;-57
2022/10/11 20:48:09;;;;;;;9.00;3.03;;;16.70;99.90;;;;;;7706559;75;26883;-57
2022/10/11 20:58:11;;;;;;;7.80;3.37;;;16.70;99.90;;;;;;7720678;76;26291;-57
2022/10/11 21:08:14;;;;;;;5.80;2.70;;;16.60;99.90;;;;;;7703051;76;26313;-58
2022/10/11 21:18:17;;;;;;;6.83;2.73;;;16.60;99.90;;;;;;7720345;76;26300;-57
2022/10/11 21:28:19;;;;;;;5.20;2.40;;;16.50;99.90;;;;;;7690307;76;27159;-57
2022/10/11 21:38:22;;;;;;;5.73;2.57;;;16.50;99.90;;;;;;7667526;76;26321;-57
2022/10/11 21:48:24;;;;;;;7.43;2.70;;;16.50;99.90;;;;;;7691446;75;27497;-57
2022/10/11 21:58:27;;;;;;;6.30;2.70;;;16.40;99.90;;;;;;7666248;76;26607;-57
2022/10/11 22:08:30;;;;;;;7.17;2.10;;;16.40;99.90;;;;;;7665930;76;27144;-58
2022/10/11 22:18:33;;;;;;;7.23;2.07;;;16.40;99.90;;;;;;7687068;76;26294;-60
2022/10/11 22:28:36;;;;;;;4.70;1.93;;;16.30;99.90;;;;;;7578516;76;26817;-53
2022/10/11 22:38:41;;;;;;;6.23;2.40;;;16.30;99.90;;;;;;7622802;76;26278;-57
2022/10/11 22:48:43;;;;;;;6.70;2.27;;;16.30;99.90;;;;;;7631531;76;26249;-51
2022/10/11 22:58:46;;;;;;;6.03;1.80;;;16.20;99.90;;;;;;7626648;76;26252;-51
2022/10/11 23:08:49;;;;;;;4.73;1.80;;;16.20;99.90;;;;;;7591948;76;26334;-53
2022/10/11 23:18:54;;;;;;;7.47;1.90;;;16.20;99.90;;;;;;7608282;76;26255;-52
2022/10/11 23:28:56;;;;;;;7.27;2.47;;;16.10;99.90;;;;;;7637361;76;26345;-52
2022/10/11 23:38:59;;;;;;;11.67;3.80;;;16.00;99.90;;;;;;7559268;76;26447;-53
2022/10/11 23:49:02;;;;;;;6.20;1.93;;;16.00;99.90;;;;;;7598843;76;26254;-51
2022/10/11 23:59:04;;;;;;;4.57;2.00;;;16.00;99.90;;;;;;7603298;76;26346;-54
